الصفحة الرئيسية
METAR-TAF:

METAR-TAF

مطار :

بوا فيستا, الرأس الأخضر

دائرة عرض: 16-08-15N, خط طول: 22-53-22W, ارتفاع: 21 متر

مراقبة الطقس الحالي

تاريخ ووقت الإصدار 12 دقيقة قبل الساعة 10:00UTC
ريح 15 عقدة من الشمال
درجة الحرارة 27°درجة مئوية
الرطوبة 74%
ضغط 1016 hPa
الرؤية 10 كم أو أكثر
غيوم متفرقة على ارتفاع 1400 قدم
غيوم متفرقة على ارتفاع 10000 قدم

METAR: GVBA 171000Z 01015KT 9999 SCT014 SCT100 27/22 Q1016 NOSIG

زمن: 09:12 (10:12 UTC)

توقعات

تاريخ ووقت الإصدار 11ساعات و 12 دقيقة قبل الساعة 23:00UTC
التوقعات صالحة من17 الساعة 00 UTC إلى 18 الساعة 06 UTC
ريح 15 عقدة من الشرق/الشمال الشرقي
الرؤية 10 كم أو أكثر
غيوم متفرقة على ارتفاع 1400 قدم
مؤقت
من 17 الساعة 00 UTC إلى 17 الساعة 08 UTC
ريح 5 عقدة من الشرق/الشمال الشرقي

TAF: GVBA 162300Z 1700/1806 06015KT 9999 SCT014 TEMPO 1700/1708 07005KT

أرصاد الطقس والتوقعات من أكثر من 4000 مطار (تقارير الطقس للمطار METAR والتنبؤ بالطقس بالمطارTAF).

المحطات المتاحة هي النقط الصفراء والحمراء على الخريطة.

حرك المؤشر فوق النقطة لمعرفة اسم المحطة.

ثم انقر لمعرفة أرصاد وتوقعات الطقس.

لتغيير الخارطة: اضغط على الأزرار الخضراء مع رمز الصليب الأسود للتكبير. على الزر الأخضر مع شرطة للتصغير، أو على الأسهم الخضراء للخرائط المجاورة.


METAR-TAF: